sensor_id;sensor_type;location;lat;lon;timestamp;temperature;humidity
34008;DHT22;41085;51.594;7.138;2023-01-10T00:03:11;16.90;98.00
34008;DHT22;41085;51.594;7.138;2023-01-10T00:07:11;16.90;98.60
34008;DHT22;41085;51.594;7.138;2023-01-10T00:11:12;17.20;99.30
34008;DHT22;41085;51.594;7.138;2023-01-10T00:15:35;18.20;98.50
34008;DHT22;41085;51.594;7.138;2023-01-10T00:19:47;17.90;99.00
34008;DHT22;41085;51.594;7.138;2023-01-10T00:23:48;19.20;98.20
34008;DHT22;41085;51.594;7.138;2023-01-10T00:27:51;17.30;99.90
34008;DHT22;41085;51.594;7.138;2023-01-10T00:32:01;18.50;98.50
34008;DHT22;41085;51.594;7.138;2023-01-10T00:36:04;17.40;99.50
34008;DHT22;41085;51.594;7.138;2023-01-10T00:40:11;17.30;98.00
34008;DHT22;41085;51.594;7.138;2023-01-10T00:44:11;17.30;98.70
34008;DHT22;41085;51.594;7.138;2023-01-10T00:48:15;17.90;99.30
34008;DHT22;41085;51.594;7.138;2023-01-10T00:52:16;18.60;99.90
34008;DHT22;41085;51.594;7.138;2023-01-10T00:56:16;18.90;99.00
34008;DHT22;41085;51.594;7.138;2023-01-10T01:00:17;18.80;99.60
34008;DHT22;41085;51.594;7.138;2023-01-10T01:04:21;17.20;98.60
34008;DHT22;41085;51.594;7.138;2023-01-10T01:08:22;18.00;98.40
34008;DHT22;41085;51.594;7.138;2023-01-10T01:12:31;17.90;99.50
34008;DHT22;41085;51.594;7.138;2023-01-10T01:16:32;17.40;98.80
34008;DHT22;41085;51.594;7.138;2023-01-10T01:20:53;17.20;99.30
34008;DHT22;41085;51.594;7.138;2023-01-10T01:25:16;19.40;99.90
34008;DHT22;41085;51.594;7.138;2023-01-10T01:30:10;17.50;97.80
34008;DHT22;41085;51.594;7.138;2023-01-10T01:34:16;19.80;98.30
34008;DHT22;41085;51.594;7.138;2023-01-10T01:44:06;19.60;98.40
34008;DHT22;41085;51.594;7.138;2023-01-10T01:58:56;15.80;97.40
34008;DHT22;41085;51.594;7.138;2023-01-10T02:03:07;18.40;99.00
34008;DHT22;41085;51.594;7.138;2023-01-10T02:27:17;17.30;97.80
34008;DHT22;41085;51.594;7.138;2023-01-10T02:45:28;17.00;98.20
34008;DHT22;41085;51.594;7.138;2023-01-10T02:49:30;17.20;98.00
34008;DHT22;41085;51.594;7.138;2023-01-10T02:53:40;17.80;98.40
34008;DHT22;41085;51.594;7.138;2023-01-10T03:06:33;17.30;98.30
34008;DHT22;41085;51.594;7.138;2023-01-10T03:10:44;17.30;98.30
34008;DHT22;41085;51.594;7.138;2023-01-10T03:14:48;17.20;98.40
34008;DHT22;41085;51.594;7.138;2023-01-10T03:19:16;17.60;98.70
34008;DHT22;41085;51.594;7.138;2023-01-10T03:23:21;17.50;98.70
34008;DHT22;41085;51.594;7.138;2023-01-10T03:31:57;17.00;98.60
34008;DHT22;41085;51.594;7.138;2023-01-10T03:36:29;17.70;98.80
34008;DHT22;41085;51.594;7.138;2023-01-10T03:40:46;17.20;98.60
34008;DHT22;41085;51.594;7.138;2023-01-10T03:44:59;17.40;99.00
34008;DHT22;41085;51.594;7.138;2023-01-10T03:49:03;17.70;99.00
34008;DHT22;41085;51.594;7.138;2023-01-10T03:53:04;17.40;98.90
34008;DHT22;41085;51.594;7.138;2023-01-10T03:57:05;18.10;99.30
34008;DHT22;41085;51.594;7.138;2023-01-10T04:01:07;18.70;99.70
34008;DHT22;41085;51.594;7.138;2023-01-10T04:05:07;17.20;99.60
34008;DHT22;41085;51.594;7.138;2023-01-10T04:09:08;17.10;99.70
34008;DHT22;41085;51.594;7.138;2023-01-10T04:13:09;17.20;99.50
34008;DHT22;41085;51.594;7.138;2023-01-10T04:17:10;17.40;99.90
34008;DHT22;41085;51.594;7.138;2023-01-10T04:21:10;17.00;99.90
34008;DHT22;41085;51.594;7.138;2023-01-10T04:25:11;17.40;99.90
34008;DHT22;41085;51.594;7.138;2023-01-10T04:29:12;17.10;99.90
34008;DHT22;41085;51.594;7.138;2023-01-10T04:33:12;17.00;99.90
34008;DHT22;41085;51.594;7.138;2023-01-10T04:37:13;18.20;99.90
34008;DHT22;41085;51.594;7.138;2023-01-10T04:41:13;18.30;99.90
34008;DHT22;41085;51.594;7.138;2023-01-10T04:45:14;18.00;99.90
34008;DHT22;41085;51.594;7.138;2023-01-10T04:49:17;17.60;99.90
34008;DHT22;41085;51.594;7.138;2023-01-10T04:53:18;17.20;99.80
34008;DHT22;41085;51.594;7.138;2023-01-10T04:57:18;18.00;99.90
34008;DHT22;41085;51.594;7.138;2023-01-10T05:01:21;18.50;99.90
34008;DHT22;41085;51.594;7.138;2023-01-10T05:05:23;16.90;99.50
34008;DHT22;41085;51.594;7.138;2023-01-10T05:09:23;18.80;99.90
34008;DHT22;41085;51.594;7.138;2023-01-10T05:13:24;17.20;99.20
34008;DHT22;41085;51.594;7.138;2023-01-10T05:17:26;17.60;99.40
34008;DHT22;41085;51.594;7.138;2023-01-10T05:21:27;14.90;99.50
34008;DHT22;41085;51.594;7.138;2023-01-10T05:25:27;16.70;99.90
34008;DHT22;41085;51.594;7.138;2023-01-10T05:29:28;18.00;99.90
34008;DHT22;41085;51.594;7.138;2023-01-10T05:33:28;18.20;99.70
34008;DHT22;41085;51.594;7.138;2023-01-10T05:37:29;17.00;99.30
34008;DHT22;41085;51.594;7.138;2023-01-10T05:41:29;17.60;99.30
34008;DHT22;41085;51.594;7.138;2023-01-10T05:45:30;18.10;99.40
34008;DHT22;41085;51.594;7.138;2023-01-10T05:49:31;18.80;99.20
34008;DHT22;41085;51.594;7.138;2023-01-10T05:53:32;18.30;99.10
34008;DHT22;41085;51.594;7.138;2023-01-10T05:57:32;18.50;99.10
34008;DHT22;41085;51.594;7.138;2023-01-10T06:01:34;17.40;99.30
34008;DHT22;41085;51.594;7.138;2023-01-10T06:05:39;17.30;98.60
34008;DHT22;41085;51.594;7.138;2023-01-10T06:09:40;17.30;99.10
34008;DHT22;41085;51.594;7.138;2023-01-10T06:13:40;17.20;99.40
34008;DHT22;41085;51.594;7.138;2023-01-10T06:17:41;17.60;99.50
34008;DHT22;41085;51.594;7.138;2023-01-10T06:21:43;18.40;99.80
34008;DHT22;41085;51.594;7.138;2023-01-10T06:25:44;17.30;99.80
34008;DHT22;41085;51.594;7.138;2023-01-10T06:29:45;17.70;99.90
34008;DHT22;41085;51.594;7.138;2023-01-10T06:33:45;18.60;99.90
34008;DHT22;41085;51.594;7.138;2023-01-10T06:37:54;17.40;99.90
34008;DHT22;41085;51.594;7.138;2023-01-10T06:41:59;17.20;99.90
34008;DHT22;41085;51.594;7.138;2023-01-10T06:46:01;16.90;99.90
34008;DHT22;41085;51.594;7.138;2023-01-10T06:50:02;17.10;99.90
34008;DHT22;41085;51.594;7.138;2023-01-10T06:54:07;17.20;99.90
34008;DHT22;41085;51.594;7.138;2023-01-10T06:58:08;17.80;99.90
34008;DHT22;41085;51.594;7.138;2023-01-10T07:02:10;19.20;99.90
34008;DHT22;41085;51.594;7.138;2023-01-10T07:06:10;17.20;99.50
34008;DHT22;41085;51.594;7.138;2023-01-10T07:10:11;17.90;99.80
34008;DHT22;41085;51.594;7.138;2023-01-10T07:14:12;17.90;99.70
34008;DHT22;41085;51.594;7.138;2023-01-10T07:18:14;18.30;99.80
34008;DHT22;41085;51.594;7.138;2023-01-10T07:22:16;18.50;99.30
34008;DHT22;41085;51.594;7.138;2023-01-10T07:26:17;18.30;99.30
34008;DHT22;41085;51.594;7.138;2023-01-10T07:30:18;17.30;98.80
34008;DHT22;41085;51.594;7.138;2023-01-10T07:34:18;17.00;98.90
34008;DHT22;41085;51.594;7.138;2023-01-10T07:38:19;17.80;99.20
34008;DHT22;41085;51.594;7.138;2023-01-10T07:42:20;17.40;99.00
34008;DHT22;41085;51.594;7.138;2023-01-10T07:46:20;17.60;99.10
34008;DHT22;41085;51.594;7.138;2023-01-10T07:50:21;17.40;98.90
34008;DHT22;41085;51.594;7.138;2023-01-10T07:54:21;17.70;99.10
34008;DHT22;41085;51.594;7.138;2023-01-10T07:58:22;18.30;99.30
34008;DHT22;41085;51.594;7.138;2023-01-10T08:02:23;18.10;99.20
34008;DHT22;41085;51.594;7.138;2023-01-10T08:06:28;16.30;99.90
34008;DHT22;41085;51.594;7.138;2023-01-10T08:10:28;16.90;99.10
34008;DHT22;41085;51.594;7.138;2023-01-10T08:14:29;17.30;99.40
34008;DHT22;41085;51.594;7.138;2023-01-10T08:18:30;17.40;99.90
34008;DHT22;41085;51.594;7.138;2023-01-10T08:22:31;16.90;99.90
34008;DHT22;41085;51.594;7.138;2023-01-10T08:26:31;17.30;98.90
34008;DHT22;41085;51.594;7.138;2023-01-10T08:30:32;18.00;93.90
34008;DHT22;41085;51.594;7.138;2023-01-10T08:44:57;14.10;91.30
34008;DHT22;41085;51.594;7.138;2023-01-10T10:09:35;16.30;97.10
34008;DHT22;41085;51.594;7.138;2023-01-10T10:22:51;17.80;98.20
34008;DHT22;41085;51.594;7.138;2023-01-10T10:27:01;16.20;97.20
34008;DHT22;41085;51.594;7.138;2023-01-10T10:36:10;16.50;97.20
34008;DHT22;41085;51.594;7.138;2023-01-10T10:48:42;16.20;97.30
34008;DHT22;41085;51.594;7.138;2023-01-10T10:52:48;16.30;97.30
34008;DHT22;41085;51.594;7.138;2023-01-10T10:56:56;16.40;98.00
34008;DHT22;41085;51.594;7.138;2023-01-10T11:01:00;16.10;97.80
34008;DHT22;41085;51.594;7.138;2023-01-10T11:05:05;16.20;97.90
34008;DHT22;41085;51.594;7.138;2023-01-10T11:09:07;16.40;97.60
34008;DHT22;41085;51.594;7.138;2023-01-10T11:17:29;16.40;97.40
34008;DHT22;41085;51.594;7.138;2023-01-10T11:21:30;16.00;97.40
34008;DHT22;41085;51.594;7.138;2023-01-10T11:25:31;16.50;98.20
34008;DHT22;41085;51.594;7.138;2023-01-10T11:29:38;16.50;97.80
34008;DHT22;41085;51.594;7.138;2023-01-10T11:33:42;17.60;97.80
34008;DHT22;41085;51.594;7.138;2023-01-10T11:37:42;16.20;98.10
34008;DHT22;41085;51.594;7.138;2023-01-10T11:41:43;16.60;97.90
34008;DHT22;41085;51.594;7.138;2023-01-10T11:45:44;16.10;98.10
34008;DHT22;41085;51.594;7.138;2023-01-10T11:49:44;16.00;98.20
34008;DHT22;41085;51.594;7.138;2023-01-10T11:53:45;17.80;99.00
34008;DHT22;41085;51.594;7.138;2023-01-10T11:58:14;16.50;97.80
34008;DHT22;41085;51.594;7.138;2023-01-10T12:02:24;16.60;97.80
34008;DHT22;41085;51.594;7.138;2023-01-10T12:06:43;16.50;97.60
34008;DHT22;41085;51.594;7.138;2023-01-10T12:10:56;17.50;97.90
34008;DHT22;41085;51.594;7.138;2023-01-10T12:14:59;16.10;97.70
34008;DHT22;41085;51.594;7.138;2023-01-10T12:19:04;16.40;97.70
34008;DHT22;41085;51.594;7.138;2023-01-10T12:23:12;17.00;97.90
34008;DHT22;41085;51.594;7.138;2023-01-10T12:27:15;16.60;97.70
34008;DHT22;41085;51.594;7.138;2023-01-10T12:31:20;16.90;97.90
34008;DHT22;41085;51.594;7.138;2023-01-10T12:39:40;16.10;97.90
34008;DHT22;41085;51.594;7.138;2023-01-10T12:43:43;17.50;98.20
34008;DHT22;41085;51.594;7.138;2023-01-10T12:52:23;17.90;98.10
34008;DHT22;41085;51.594;7.138;2023-01-10T12:56:26;16.70;97.70
34008;DHT22;41085;51.594;7.138;2023-01-10T13:00:37;17.60;98.20
34008;DHT22;41085;51.594;7.138;2023-01-10T13:04:44;16.40;97.30
34008;DHT22;41085;51.594;7.138;2023-01-10T13:08:48;16.30;97.30
34008;DHT22;41085;51.594;7.138;2023-01-10T13:13:19;18.30;98.20
34008;DHT22;41085;51.594;7.138;2023-01-10T13:21:33;16.50;97.70
34008;DHT22;41085;51.594;7.138;2023-01-10T13:25:35;16.20;98.20
34008;DHT22;41085;51.594;7.138;2023-01-10T13:29:40;16.60;98.30
34008;DHT22;41085;51.594;7.138;2023-01-10T13:33:54;17.30;97.60
34008;DHT22;41085;51.594;7.138;2023-01-10T13:37:55;16.50;97.10
34008;DHT22;41085;51.594;7.138;2023-01-10T13:54:26;16.90;98.60
34008;DHT22;41085;51.594;7.138;2023-01-10T13:58:39;16.40;97.50
34008;DHT22;41085;51.594;7.138;2023-01-10T14:02:58;16.50;97.30
34008;DHT22;41085;51.594;7.138;2023-01-10T14:07:02;17.90;98.10
34008;DHT22;41085;51.594;7.138;2023-01-10T14:11:05;17.30;97.50
34008;DHT22;41085;51.594;7.138;2023-01-10T14:15:25;16.40;97.10
34008;DHT22;41085;51.594;7.138;2023-01-10T14:19:29;16.60;97.00
34008;DHT22;41085;51.594;7.138;2023-01-10T14:23:41;16.60;97.00
34008;DHT22;41085;51.594;7.138;2023-01-10T14:27:44;16.90;97.70
34008;DHT22;41085;51.594;7.138;2023-01-10T14:31:47;16.10;97.00
34008;DHT22;41085;51.594;7.138;2023-01-10T14:35:52;16.20;97.00
34008;DHT22;41085;51.594;7.138;2023-01-10T14:39:55;18.00;97.70
34008;DHT22;41085;51.594;7.138;2023-01-10T14:44:16;16.10;97.90
34008;DHT22;41085;51.594;7.138;2023-01-10T14:52:25;16.40;97.70
34008;DHT22;41085;51.594;7.138;2023-01-10T14:56:37;16.70;97.50
34008;DHT22;41085;51.594;7.138;2023-01-10T15:00:43;16.40;97.00
34008;DHT22;41085;51.594;7.138;2023-01-10T15:05:00;17.00;97.60
34008;DHT22;41085;51.594;7.138;2023-01-10T15:09:01;18.30;97.60
34008;DHT22;41085;51.594;7.138;2023-01-10T15:13:04;17.10;97.50
34008;DHT22;41085;51.594;7.138;2023-01-10T15:17:05;16.20;97.30
34008;DHT22;41085;51.594;7.138;2023-01-10T15:21:11;18.70;98.60
34008;DHT22;41085;51.594;7.138;2023-01-10T15:29:22;16.50;97.60
34008;DHT22;41085;51.594;7.138;2023-01-10T15:33:28;16.20;97.10
34008;DHT22;41085;51.594;7.138;2023-01-10T15:37:33;18.80;97.90
34008;DHT22;41085;51.594;7.138;2023-01-10T15:41:35;16.40;97.10
34008;DHT22;41085;51.594;7.138;2023-01-10T15:45:39;16.50;97.40
34008;DHT22;41085;51.594;7.138;2023-01-10T15:49:51;16.60;97.20
34008;DHT22;41085;51.594;7.138;2023-01-10T15:57:59;16.60;97.00
34008;DHT22;41085;51.594;7.138;2023-01-10T16:10:23;17.40;97.50
34008;DHT22;41085;51.594;7.138;2023-01-10T16:14:25;16.20;95.70
34008;DHT22;41085;51.594;7.138;2023-01-10T16:18:26;16.40;95.10
34008;DHT22;41085;51.594;7.138;2023-01-10T16:22:27;16.40;95.30
34008;DHT22;41085;51.594;7.138;2023-01-10T16:26:27;18.30;95.60
34008;DHT22;41085;51.594;7.138;2023-01-10T16:30:32;14.30;95.50
34008;DHT22;41085;51.594;7.138;2023-01-10T16:34:34;16.10;95.50
34008;DHT22;41085;51.594;7.138;2023-01-10T16:38:34;15.90;96.10
34008;DHT22;41085;51.594;7.138;2023-01-10T16:42:36;18.00;96.70
34008;DHT22;41085;51.594;7.138;2023-01-10T16:46:55;17.40;96.30
34008;DHT22;41085;51.594;7.138;2023-01-10T16:51:26;16.10;95.80
34008;DHT22;41085;51.594;7.138;2023-01-10T16:55:43;16.80;95.90
34008;DHT22;41085;51.594;7.138;2023-01-10T16:59:43;16.30;95.50
34008;DHT22;41085;51.594;7.138;2023-01-10T17:03:44;18.00;96.70
34008;DHT22;41085;51.594;7.138;2023-01-10T17:07:45;17.10;96.10
34008;DHT22;41085;51.594;7.138;2023-01-10T17:11:46;16.60;96.50
34008;DHT22;41085;51.594;7.138;2023-01-10T17:15:47;17.50;96.90
34008;DHT22;41085;51.594;7.138;2023-01-10T17:19:47;16.40;96.50
34008;DHT22;41085;51.594;7.138;2023-01-10T17:23:49;18.80;97.20
34008;DHT22;41085;51.594;7.138;2023-01-10T17:27:50;16.10;96.10
34008;DHT22;41085;51.594;7.138;2023-01-10T17:31:51;15.90;96.50
34008;DHT22;41085;51.594;7.138;2023-01-10T17:35:53;16.20;96.60
34008;DHT22;41085;51.594;7.138;2023-01-10T17:39:54;15.80;96.10
34008;DHT22;41085;51.594;7.138;2023-01-10T17:43:55;16.80;96.80
34008;DHT22;41085;51.594;7.138;2023-01-10T17:47:56;15.70;96.70
34008;DHT22;41085;51.594;7.138;2023-01-10T17:51:56;15.70;96.80
34008;DHT22;41085;51.594;7.138;2023-01-10T17:55:58;15.60;96.50
34008;DHT22;41085;51.594;7.138;2023-01-10T18:00:00;16.10;97.20
34008;DHT22;41085;51.594;7.138;2023-01-10T18:04:01;16.30;96.90
34008;DHT22;41085;51.594;7.138;2023-01-10T18:08:02;17.90;97.50
34008;DHT22;41085;51.594;7.138;2023-01-10T18:12:05;16.20;97.40
34008;DHT22;41085;51.594;7.138;2023-01-10T18:16:06;16.20;97.30
34008;DHT22;41085;51.594;7.138;2023-01-10T18:20:07;18.20;98.30
34008;DHT22;41085;51.594;7.138;2023-01-10T18:24:07;16.30;97.40
34008;DHT22;41085;51.594;7.138;2023-01-10T18:28:08;16.70;97.70
34008;DHT22;41085;51.594;7.138;2023-01-10T18:32:09;17.20;98.10
34008;DHT22;41085;51.594;7.138;2023-01-10T18:36:15;16.20;97.40
34008;DHT22;41085;51.594;7.138;2023-01-10T18:40:16;16.40;97.50
34008;DHT22;41085;51.594;7.138;2023-01-10T18:44:17;16.20;97.80
34008;DHT22;41085;51.594;7.138;2023-01-10T18:48:18;16.20;97.70
34008;DHT22;41085;51.594;7.138;2023-01-10T18:52:19;16.00;97.60
34008;DHT22;41085;51.594;7.138;2023-01-10T18:56:20;18.20;98.00
34008;DHT22;41085;51.594;7.138;2023-01-10T19:00:21;15.40;97.90
34008;DHT22;41085;51.594;7.138;2023-01-10T19:04:21;16.20;97.50
34008;DHT22;41085;51.594;7.138;2023-01-10T19:08:22;16.10;97.80
34008;DHT22;41085;51.594;7.138;2023-01-10T19:12:23;15.70;97.40
34008;DHT22;41085;51.594;7.138;2023-01-10T19:16:27;16.60;97.60
34008;DHT22;41085;51.594;7.138;2023-01-10T19:20:28;15.90;97.40
34008;DHT22;41085;51.594;7.138;2023-01-10T19:24:29;18.50;98.20
34008;DHT22;41085;51.594;7.138;2023-01-10T19:28:34;16.20;98.10
34008;DHT22;41085;51.594;7.138;2023-01-10T19:32:34;18.60;98.70
34008;DHT22;41085;51.594;7.138;2023-01-10T19:36:37;15.70;97.30
34008;DHT22;41085;51.594;7.138;2023-01-10T19:40:40;16.10;97.70
34008;DHT22;41085;51.594;7.138;2023-01-10T19:44:41;16.20;97.80
34008;DHT22;41085;51.594;7.138;2023-01-10T19:48:42;17.10;97.40
34008;DHT22;41085;51.594;7.138;2023-01-10T19:52:43;13.20;96.90
34008;DHT22;41085;51.594;7.138;2023-01-10T19:56:46;16.40;97.10
34008;DHT22;41085;51.594;7.138;2023-01-10T20:00:47;16.30;96.90
34008;DHT22;41085;51.594;7.138;2023-01-10T20:04:47;16.20;97.30
34008;DHT22;41085;51.594;7.138;2023-01-10T20:08:48;16.00;97.00
34008;DHT22;41085;51.594;7.138;2023-01-10T20:12:49;16.30;96.80
34008;DHT22;41085;51.594;7.138;2023-01-10T20:16:50;16.10;96.80
34008;DHT22;41085;51.594;7.138;2023-01-10T20:20:52;16.20;97.40
34008;DHT22;41085;51.594;7.138;2023-01-10T20:24:53;16.50;97.10
34008;DHT22;41085;51.594;7.138;2023-01-10T20:28:53;16.60;96.90
34008;DHT22;41085;51.594;7.138;2023-01-10T20:32:55;16.60;97.20
34008;DHT22;41085;51.594;7.138;2023-01-10T20:36:56;15.70;96.70
34008;DHT22;41085;51.594;7.138;2023-01-10T20:41:02;16.50;97.10
34008;DHT22;41085;51.594;7.138;2023-01-10T20:45:03;15.50;96.80
34008;DHT22;41085;51.594;7.138;2023-01-10T20:49:04;16.20;96.90
34008;DHT22;41085;51.594;7.138;2023-01-10T20:53:05;16.70;97.50
34008;DHT22;41085;51.594;7.138;2023-01-10T20:57:05;13.70;96.50
34008;DHT22;41085;51.594;7.138;2023-01-10T21:01:06;16.30;96.80
34008;DHT22;41085;51.594;7.138;2023-01-10T21:05:07;15.70;96.40
34008;DHT22;41085;51.594;7.138;2023-01-10T21:09:08;16.30;96.60
34008;DHT22;41085;51.594;7.138;2023-01-10T21:13:09;16.00;96.80
34008;DHT22;41085;51.594;7.138;2023-01-10T21:17:10;16.40;96.80
34008;DHT22;41085;51.594;7.138;2023-01-10T21:21:17;16.40;96.80
34008;DHT22;41085;51.594;7.138;2023-01-10T21:25:18;18.10;97.10
34008;DHT22;41085;51.594;7.138;2023-01-10T21:29:18;18.10;97.70
34008;DHT22;41085;51.594;7.138;2023-01-10T21:33:19;17.50;97.10
34008;DHT22;41085;51.594;7.138;2023-01-10T21:37:20;17.90;97.10
34008;DHT22;41085;51.594;7.138;2023-01-10T21:41:20;19.00;97.20
34008;DHT22;41085;51.594;7.138;2023-01-10T21:45:39;16.80;96.50
34008;DHT22;41085;51.594;7.138;2023-01-10T21:49:40;16.90;96.40
34008;DHT22;41085;51.594;7.138;2023-01-10T21:53:40;16.90;96.20
34008;DHT22;41085;51.594;7.138;2023-01-10T21:57:42;16.90;96.30
34008;DHT22;41085;51.594;7.138;2023-01-10T22:01:42;16.20;96.20
34008;DHT22;41085;51.594;7.138;2023-01-10T22:05:44;17.70;96.40
34008;DHT22;41085;51.594;7.138;2023-01-10T22:09:45;17.00;96.60
34008;DHT22;41085;51.594;7.138;2023-01-10T22:13:46;16.90;96.40
34008;DHT22;41085;51.594;7.138;2023-01-10T22:17:47;16.50;95.70
34008;DHT22;41085;51.594;7.138;2023-01-10T22:21:47;16.90;95.90
34008;DHT22;41085;51.594;7.138;2023-01-10T22:26:03;16.20;96.00
34008;DHT22;41085;51.594;7.138;2023-01-10T22:30:04;17.00;95.60
34008;DHT22;41085;51.594;7.138;2023-01-10T22:34:05;16.90;96.20
34008;DHT22;41085;51.594;7.138;2023-01-10T22:38:05;17.00;96.40
34008;DHT22;41085;51.594;7.138;2023-01-10T22:42:06;16.50;96.40
34008;DHT22;41085;51.594;7.138;2023-01-10T22:46:07;16.80;96.20
34008;DHT22;41085;51.594;7.138;2023-01-10T22:50:08;18.20;96.40
34008;DHT22;41085;51.594;7.138;2023-01-10T22:54:09;17.00;96.40
34008;DHT22;41085;51.594;7.138;2023-01-10T22:58:12;16.90;95.90
34008;DHT22;41085;51.594;7.138;2023-01-10T23:02:13;16.50;96.30
34008;DHT22;41085;51.594;7.138;2023-01-10T23:06:14;19.60;97.70
34008;DHT22;41085;51.594;7.138;2023-01-10T23:10:15;16.30;95.90
34008;DHT22;41085;51.594;7.138;2023-01-10T23:14:16;16.90;96.20
34008;DHT22;41085;51.594;7.138;2023-01-10T23:18:17;16.90;96.60
34008;DHT22;41085;51.594;7.138;2023-01-10T23:22:18;16.50;96.40
34008;DHT22;41085;51.594;7.138;2023-01-10T23:26:18;16.60;96.10
34008;DHT22;41085;51.594;7.138;2023-01-10T23:30:19;16.50;96.10
34008;DHT22;41085;51.594;7.138;2023-01-10T23:34:21;16.80;96.30
34008;DHT22;41085;51.594;7.138;2023-01-10T23:38:22;17.50;96.40
34008;DHT22;41085;51.594;7.138;2023-01-10T23:42:23;16.80;96.30
34008;DHT22;41085;51.594;7.138;2023-01-10T23:46:23;16.80;96.10
34008;DHT22;41085;51.594;7.138;2023-01-10T23:50:24;17.00;96.50
34008;DHT22;41085;51.594;7.138;2023-01-10T23:54:25;16.80;96.20
34008;DHT22;41085;51.594;7.138;2023-01-10T23:58:26;16.90;96.60
